sensor_id;sensor_type;location;lat;lon;timestamp;temperature;humidity
47618;DHT22;33336;36.728;-4.414;2023-04-09T00:02:02;17.50;61.90
47618;DHT22;33336;36.728;-4.414;2023-04-09T00:07:05;17.00;62.00
47618;DHT22;33336;36.728;-4.414;2023-04-09T00:12:08;17.00;61.90
47618;DHT22;33336;36.728;-4.414;2023-04-09T00:17:13;17.20;60.80
47618;DHT22;33336;36.728;-4.414;2023-04-09T00:22:16;17.10;60.70
47618;DHT22;33336;36.728;-4.414;2023-04-09T00:27:19;16.90;60.70
47618;DHT22;33336;36.728;-4.414;2023-04-09T00:32:23;16.60;60.90
47618;DHT22;33336;36.728;-4.414;2023-04-09T00:37:26;16.90;61.00
47618;DHT22;33336;36.728;-4.414;2023-04-09T00:42:31;16.90;60.20
47618;DHT22;33336;36.728;-4.414;2023-04-09T00:47:36;17.10;60.80
47618;DHT22;33336;36.728;-4.414;2023-04-09T00:52:38;16.80;59.90
47618;DHT22;33336;36.728;-4.414;2023-04-09T00:57:42;16.70;59.60
47618;DHT22;33336;36.728;-4.414;2023-04-09T01:02:47;16.70;60.20
47618;DHT22;33336;36.728;-4.414;2023-04-09T01:07:59;17.00;59.90
47618;DHT22;33336;36.728;-4.414;2023-04-09T01:13:07;16.70;59.90
47618;DHT22;33336;36.728;-4.414;2023-04-09T01:18:21;16.90;59.80
47618;DHT22;33336;36.728;-4.414;2023-04-09T01:23:32;17.10;59.80
47618;DHT22;33336;36.728;-4.414;2023-04-09T01:28:42;17.30;60.20
47618;DHT22;33336;36.728;-4.414;2023-04-09T01:33:46;17.00;59.90
47618;DHT22;33336;36.728;-4.414;2023-04-09T01:38:49;17.10;59.80
47618;DHT22;33336;36.728;-4.414;2023-04-09T01:43:54;17.30;60.20
47618;DHT22;33336;36.728;-4.414;2023-04-09T01:48:58;17.30;60.70
47618;DHT22;33336;36.728;-4.414;2023-04-09T01:54:02;17.30;60.40
47618;DHT22;33336;36.728;-4.414;2023-04-09T01:59:07;17.30;60.60
47618;DHT22;33336;36.728;-4.414;2023-04-09T02:04:14;16.90;60.30
47618;DHT22;33336;36.728;-4.414;2023-04-09T02:09:18;16.90;60.60
47618;DHT22;33336;36.728;-4.414;2023-04-09T02:14:24;16.90;61.00
47618;DHT22;33336;36.728;-4.414;2023-04-09T02:19:38;17.10;62.00
47618;DHT22;33336;36.728;-4.414;2023-04-09T02:24:41;16.50;60.70
47618;DHT22;33336;36.728;-4.414;2023-04-09T02:29:46;16.50;61.90
47618;DHT22;33336;36.728;-4.414;2023-04-09T02:34:49;16.70;62.20
47618;DHT22;33336;36.728;-4.414;2023-04-09T02:39:52;16.80;61.70
47618;DHT22;33336;36.728;-4.414;2023-04-09T02:44:56;16.90;61.80
47618;DHT22;33336;36.728;-4.414;2023-04-09T02:50:00;16.90;61.70
47618;DHT22;33336;36.728;-4.414;2023-04-09T02:55:03;16.90;61.60
47618;DHT22;33336;36.728;-4.414;2023-04-09T03:00:10;16.80;61.80
47618;DHT22;33336;36.728;-4.414;2023-04-09T03:05:13;16.70;61.70
47618;DHT22;33336;36.728;-4.414;2023-04-09T03:10:16;16.70;61.70
47618;DHT22;33336;36.728;-4.414;2023-04-09T03:15:20;16.70;62.00
47618;DHT22;33336;36.728;-4.414;2023-04-09T03:20:24;16.70;61.60
47618;DHT22;33336;36.728;-4.414;2023-04-09T03:25:27;16.80;60.00
47618;DHT22;33336;36.728;-4.414;2023-04-09T03:30:32;16.80;59.80
47618;DHT22;33336;36.728;-4.414;2023-04-09T03:35:34;16.80;59.50
47618;DHT22;33336;36.728;-4.414;2023-04-09T03:40:37;16.60;61.40
47618;DHT22;33336;36.728;-4.414;2023-04-09T03:45:41;16.30;61.30
47618;DHT22;33336;36.728;-4.414;2023-04-09T03:50:45;16.00;61.30
47618;DHT22;33336;36.728;-4.414;2023-04-09T03:55:48;15.80;60.80
47618;DHT22;33336;36.728;-4.414;2023-04-09T04:00:53;16.00;61.80
47618;DHT22;33336;36.728;-4.414;2023-04-09T04:06:00;16.10;61.30
47618;DHT22;33336;36.728;-4.414;2023-04-09T04:11:04;16.30;61.70
47618;DHT22;33336;36.728;-4.414;2023-04-09T04:16:09;16.00;63.60
47618;DHT22;33336;36.728;-4.414;2023-04-09T04:21:13;16.00;64.80
47618;DHT22;33336;36.728;-4.414;2023-04-09T04:26:16;16.30;64.50
47618;DHT22;33336;36.728;-4.414;2023-04-09T04:31:20;16.40;64.70
47618;DHT22;33336;36.728;-4.414;2023-04-09T04:36:23;16.30;64.00
47618;DHT22;33336;36.728;-4.414;2023-04-09T04:41:27;16.30;63.30
47618;DHT22;33336;36.728;-4.414;2023-04-09T04:46:31;16.40;63.90
47618;DHT22;33336;36.728;-4.414;2023-04-09T04:51:35;16.20;63.20
47618;DHT22;33336;36.728;-4.414;2023-04-09T04:56:38;16.30;62.90
47618;DHT22;33336;36.728;-4.414;2023-04-09T05:01:43;16.40;63.30
47618;DHT22;33336;36.728;-4.414;2023-04-09T05:06:45;16.30;63.10
47618;DHT22;33336;36.728;-4.414;2023-04-09T05:11:49;16.20;63.10
47618;DHT22;33336;36.728;-4.414;2023-04-09T05:16:53;16.30;63.40
47618;DHT22;33336;36.728;-4.414;2023-04-09T05:21:56;16.30;63.80
47618;DHT22;33336;36.728;-4.414;2023-04-09T05:26:59;16.30;63.60
47618;DHT22;33336;36.728;-4.414;2023-04-09T05:32:04;16.20;63.60
47618;DHT22;33336;36.728;-4.414;2023-04-09T05:37:07;16.10;64.40
47618;DHT22;33336;36.728;-4.414;2023-04-09T05:42:10;16.00;65.00
47618;DHT22;33336;36.728;-4.414;2023-04-09T05:47:14;16.20;65.10
47618;DHT22;33336;36.728;-4.414;2023-04-09T05:52:18;16.10;64.40
47618;DHT22;33336;36.728;-4.414;2023-04-09T05:57:23;16.00;68.40
47618;DHT22;33336;36.728;-4.414;2023-04-09T06:02:28;16.20;69.60
47618;DHT22;33336;36.728;-4.414;2023-04-09T06:07:30;16.20;69.10
47618;DHT22;33336;36.728;-4.414;2023-04-09T06:12:34;16.30;71.00
47618;DHT22;33336;36.728;-4.414;2023-04-09T06:17:38;16.30;70.70
47618;DHT22;33336;36.728;-4.414;2023-04-09T06:22:42;16.30;71.70
47618;DHT22;33336;36.728;-4.414;2023-04-09T06:27:45;16.40;74.80
47618;DHT22;33336;36.728;-4.414;2023-04-09T06:32:49;16.50;73.40
47618;DHT22;33336;36.728;-4.414;2023-04-09T06:37:52;16.60;74.20
47618;DHT22;33336;36.728;-4.414;2023-04-09T06:42:55;16.70;76.40
47618;DHT22;33336;36.728;-4.414;2023-04-09T06:47:59;16.80;76.60
47618;DHT22;33336;36.728;-4.414;2023-04-09T06:53:04;16.90;78.10
47618;DHT22;33336;36.728;-4.414;2023-04-09T06:58:07;17.10;79.10
47618;DHT22;33336;36.728;-4.414;2023-04-09T07:03:13;17.20;79.10
47618;DHT22;33336;36.728;-4.414;2023-04-09T07:08:16;17.10;79.90
47618;DHT22;33336;36.728;-4.414;2023-04-09T07:13:19;16.90;81.30
47618;DHT22;33336;36.728;-4.414;2023-04-09T07:18:23;17.10;80.20
47618;DHT22;33336;36.728;-4.414;2023-04-09T07:23:26;17.30;80.50
47618;DHT22;33336;36.728;-4.414;2023-04-09T07:28:29;17.50;80.60
47618;DHT22;33336;36.728;-4.414;2023-04-09T07:33:33;17.60;81.20
47618;DHT22;33336;36.728;-4.414;2023-04-09T07:38:36;17.40;81.70
47618;DHT22;33336;36.728;-4.414;2023-04-09T07:43:40;17.60;82.40
47618;DHT22;33336;36.728;-4.414;2023-04-09T07:48:44;17.50;82.50
47618;DHT22;33336;36.728;-4.414;2023-04-09T07:53:48;18.00;81.40
47618;DHT22;33336;36.728;-4.414;2023-04-09T07:58:51;17.80;90.90
47618;DHT22;33336;36.728;-4.414;2023-04-09T08:03:55;18.20;92.00
47618;DHT22;33336;36.728;-4.414;2023-04-09T08:08:58;17.90;97.20
47618;DHT22;33336;36.728;-4.414;2023-04-09T08:14:01;18.40;98.60
47618;DHT22;33336;36.728;-4.414;2023-04-09T08:19:08;18.30;99.90
47618;DHT22;33336;36.728;-4.414;2023-04-09T08:24:12;18.40;99.90
47618;DHT22;33336;36.728;-4.414;2023-04-09T08:29:15;18.40;99.90
47618;DHT22;33336;36.728;-4.414;2023-04-09T08:34:19;18.90;99.90
47618;DHT22;33336;36.728;-4.414;2023-04-09T08:39:22;19.20;99.90
47618;DHT22;33336;36.728;-4.414;2023-04-09T08:44:26;19.10;99.90
47618;DHT22;33336;36.728;-4.414;2023-04-09T08:49:31;18.90;99.90
47618;DHT22;33336;36.728;-4.414;2023-04-09T08:54:34;19.10;99.90
47618;DHT22;33336;36.728;-4.414;2023-04-09T08:59:37;19.10;99.90
47618;DHT22;33336;36.728;-4.414;2023-04-09T09:04:45;19.20;99.90
47618;DHT22;33336;36.728;-4.414;2023-04-09T09:09:53;19.50;99.90
47618;DHT22;33336;36.728;-4.414;2023-04-09T09:14:56;19.30;99.90
47618;DHT22;33336;36.728;-4.414;2023-04-09T09:20:18;19.60;99.90
47618;DHT22;33336;36.728;-4.414;2023-04-09T09:25:22;19.20;99.90
47618;DHT22;33336;36.728;-4.414;2023-04-09T09:30:26;19.20;99.90
47618;DHT22;33336;36.728;-4.414;2023-04-09T09:35:46;19.10;99.90
47618;DHT22;33336;36.728;-4.414;2023-04-09T09:40:49;18.90;99.90
47618;DHT22;33336;36.728;-4.414;2023-04-09T09:45:53;18.80;99.90
47618;DHT22;33336;36.728;-4.414;2023-04-09T09:50:59;19.10;99.90
47618;DHT22;33336;36.728;-4.414;2023-04-09T09:56:04;19.70;99.90
47618;DHT22;33336;36.728;-4.414;2023-04-09T10:01:11;19.10;99.90
47618;DHT22;33336;36.728;-4.414;2023-04-09T10:06:16;19.50;99.90
47618;DHT22;33336;36.728;-4.414;2023-04-09T10:11:19;20.10;99.90
47618;DHT22;33336;36.728;-4.414;2023-04-09T10:16:24;19.80;99.90
47618;DHT22;33336;36.728;-4.414;2023-04-09T10:21:36;20.10;99.90
47618;DHT22;33336;36.728;-4.414;2023-04-09T10:26:41;19.90;99.90
47618;DHT22;33336;36.728;-4.414;2023-04-09T10:31:47;20.20;99.90
47618;DHT22;33336;36.728;-4.414;2023-04-09T10:36:57;20.30;99.90
47618;DHT22;33336;36.728;-4.414;2023-04-09T10:42:00;20.20;99.90
47618;DHT22;33336;36.728;-4.414;2023-04-09T10:47:04;20.20;99.90
47618;DHT22;33336;36.728;-4.414;2023-04-09T10:52:09;20.10;99.90
47618;DHT22;33336;36.728;-4.414;2023-04-09T10:57:19;20.20;99.90
47618;DHT22;33336;36.728;-4.414;2023-04-09T11:02:44;20.00;99.90
47618;DHT22;33336;36.728;-4.414;2023-04-09T11:07:56;20.20;99.90
47618;DHT22;33336;36.728;-4.414;2023-04-09T11:13:00;20.60;99.90
47618;DHT22;33336;36.728;-4.414;2023-04-09T11:18:03;20.40;99.90
47618;DHT22;33336;36.728;-4.414;2023-04-09T11:23:12;20.40;99.90
47618;DHT22;33336;36.728;-4.414;2023-04-09T11:28:16;21.00;99.90
47618;DHT22;33336;36.728;-4.414;2023-04-09T11:33:19;20.60;99.90
47618;DHT22;33336;36.728;-4.414;2023-04-09T11:38:24;20.80;99.90
47618;DHT22;33336;36.728;-4.414;2023-04-09T11:43:27;20.80;99.90
47618;DHT22;33336;36.728;-4.414;2023-04-09T11:48:30;21.40;99.90
47618;DHT22;33336;36.728;-4.414;2023-04-09T11:53:36;21.60;99.90
47618;DHT22;33336;36.728;-4.414;2023-04-09T11:58:44;21.80;99.90
47618;DHT22;33336;36.728;-4.414;2023-04-09T12:03:51;21.90;99.90
47618;DHT22;33336;36.728;-4.414;2023-04-09T12:08:57;22.40;99.50
47618;DHT22;33336;36.728;-4.414;2023-04-09T12:14:00;22.20;99.80
47618;DHT22;33336;36.728;-4.414;2023-04-09T12:19:05;21.30;99.90
47618;DHT22;33336;36.728;-4.414;2023-04-09T12:24:10;22.30;99.70
47618;DHT22;33336;36.728;-4.414;2023-04-09T12:29:14;22.90;98.30
47618;DHT22;33336;36.728;-4.414;2023-04-09T12:34:17;21.70;99.60
47618;DHT22;33336;36.728;-4.414;2023-04-09T12:39:21;22.80;98.60
47618;DHT22;33336;36.728;-4.414;2023-04-09T12:44:25;22.80;98.10
47618;DHT22;33336;36.728;-4.414;2023-04-09T12:49:28;23.20;97.90
47618;DHT22;33336;36.728;-4.414;2023-04-09T12:54:33;22.70;98.00
47618;DHT22;33336;36.728;-4.414;2023-04-09T12:59:36;22.60;98.80
47618;DHT22;33336;36.728;-4.414;2023-04-09T13:04:40;22.90;98.40
47618;DHT22;33336;36.728;-4.414;2023-04-09T13:09:44;22.50;99.00
47618;DHT22;33336;36.728;-4.414;2023-04-09T13:14:49;23.60;97.60
47618;DHT22;33336;36.728;-4.414;2023-04-09T13:19:52;23.60;97.50
47618;DHT22;33336;36.728;-4.414;2023-04-09T13:24:56;23.50;97.20
47618;DHT22;33336;36.728;-4.414;2023-04-09T13:29:59;24.30;96.70
47618;DHT22;33336;36.728;-4.414;2023-04-09T13:35:04;24.50;95.80
47618;DHT22;33336;36.728;-4.414;2023-04-09T13:40:10;24.70;95.00
47618;DHT22;33336;36.728;-4.414;2023-04-09T13:45:13;24.20;95.30
47618;DHT22;33336;36.728;-4.414;2023-04-09T13:50:16;24.40;94.70
47618;DHT22;33336;36.728;-4.414;2023-04-09T13:55:21;24.20;94.40
47618;DHT22;33336;36.728;-4.414;2023-04-09T14:00:24;24.60;94.50
47618;DHT22;33336;36.728;-4.414;2023-04-09T14:05:28;25.80;92.60
47618;DHT22;33336;36.728;-4.414;2023-04-09T14:10:34;25.70;90.00
47618;DHT22;33336;36.728;-4.414;2023-04-09T14:15:38;25.50;91.80
47618;DHT22;33336;36.728;-4.414;2023-04-09T14:20:41;26.00;90.50
47618;DHT22;33336;36.728;-4.414;2023-04-09T14:25:46;26.10;90.70
47618;DHT22;33336;36.728;-4.414;2023-04-09T14:30:49;26.30;87.50
47618;DHT22;33336;36.728;-4.414;2023-04-09T14:35:52;26.90;86.00
47618;DHT22;33336;36.728;-4.414;2023-04-09T14:40:56;25.70;85.80
47618;DHT22;33336;36.728;-4.414;2023-04-09T14:46:00;24.50;91.30
47618;DHT22;33336;36.728;-4.414;2023-04-09T14:51:05;24.90;90.40
47618;DHT22;33336;36.728;-4.414;2023-04-09T14:56:10;25.60;87.80
47618;DHT22;33336;36.728;-4.414;2023-04-09T15:01:13;25.70;88.00
47618;DHT22;33336;36.728;-4.414;2023-04-09T15:06:17;26.30;80.70
47618;DHT22;33336;36.728;-4.414;2023-04-09T15:11:21;28.00;84.00
47618;DHT22;33336;36.728;-4.414;2023-04-09T15:16:26;28.40;83.70
47618;DHT22;33336;36.728;-4.414;2023-04-09T15:21:29;26.20;84.10
47618;DHT22;33336;36.728;-4.414;2023-04-09T15:26:34;26.30;88.70
47618;DHT22;33336;36.728;-4.414;2023-04-09T15:31:37;26.80;84.20
47618;DHT22;33336;36.728;-4.414;2023-04-09T15:36:41;29.00;84.10
47618;DHT22;33336;36.728;-4.414;2023-04-09T15:41:45;31.60;78.30
47618;DHT22;33336;36.728;-4.414;2023-04-09T15:46:49;33.50;75.20
47618;DHT22;33336;36.728;-4.414;2023-04-09T15:51:52;34.50;70.60
47618;DHT22;33336;36.728;-4.414;2023-04-09T15:56:56;32.70;72.30
47618;DHT22;33336;36.728;-4.414;2023-04-09T16:01:59;31.70;70.50
47618;DHT22;33336;36.728;-4.414;2023-04-09T16:07:03;31.40;73.90
47618;DHT22;33336;36.728;-4.414;2023-04-09T16:12:07;32.00;71.50
47618;DHT22;33336;36.728;-4.414;2023-04-09T16:17:11;30.90;74.10
47618;DHT22;33336;36.728;-4.414;2023-04-09T16:22:14;30.50;76.50
47618;DHT22;33336;36.728;-4.414;2023-04-09T16:27:18;32.90;75.70
47618;DHT22;33336;36.728;-4.414;2023-04-09T16:32:21;36.70;71.10
47618;DHT22;33336;36.728;-4.414;2023-04-09T16:37:24;37.70;64.70
47618;DHT22;33336;36.728;-4.414;2023-04-09T16:42:28;37.20;65.60
47618;DHT22;33336;36.728;-4.414;2023-04-09T16:47:33;36.50;66.50
47618;DHT22;33336;36.728;-4.414;2023-04-09T16:52:36;37.80;62.00
47618;DHT22;33336;36.728;-4.414;2023-04-09T16:57:41;36.40;64.30
47618;DHT22;33336;36.728;-4.414;2023-04-09T17:02:44;34.40;66.60
47618;DHT22;33336;36.728;-4.414;2023-04-09T17:07:48;34.70;67.00
47618;DHT22;33336;36.728;-4.414;2023-04-09T17:12:52;35.80;68.20
47618;DHT22;33336;36.728;-4.414;2023-04-09T17:17:57;35.50;67.70
47618;DHT22;33336;36.728;-4.414;2023-04-09T17:23:00;36.80;69.50
47618;DHT22;33336;36.728;-4.414;2023-04-09T17:28:04;36.00;70.60
47618;DHT22;33336;36.728;-4.414;2023-04-09T17:33:07;33.40;71.20
47618;DHT22;33336;36.728;-4.414;2023-04-09T17:38:11;33.90;71.20
47618;DHT22;33336;36.728;-4.414;2023-04-09T17:43:22;34.80;70.60
47618;DHT22;33336;36.728;-4.414;2023-04-09T17:48:26;35.70;69.90
47618;DHT22;33336;36.728;-4.414;2023-04-09T17:53:28;33.70;70.60
47618;DHT22;33336;36.728;-4.414;2023-04-09T17:58:33;31.70;72.50
47618;DHT22;33336;36.728;-4.414;2023-04-09T18:03:36;31.30;74.90
47618;DHT22;33336;36.728;-4.414;2023-04-09T18:08:40;32.10;73.40
47618;DHT22;33336;36.728;-4.414;2023-04-09T18:13:45;32.50;73.10
47618;DHT22;33336;36.728;-4.414;2023-04-09T18:18:48;30.50;74.60
47618;DHT22;33336;36.728;-4.414;2023-04-09T18:23:50;29.30;76.10
47618;DHT22;33336;36.728;-4.414;2023-04-09T18:28:55;27.90;78.30
47618;DHT22;33336;36.728;-4.414;2023-04-09T18:33:58;26.10;80.20
47618;DHT22;33336;36.728;-4.414;2023-04-09T18:39:02;25.40;83.60
47618;DHT22;33336;36.728;-4.414;2023-04-09T18:44:08;24.30;87.10
47618;DHT22;33336;36.728;-4.414;2023-04-09T18:49:12;23.70;90.30
47618;DHT22;33336;36.728;-4.414;2023-04-09T18:54:15;23.30;91.80
47618;DHT22;33336;36.728;-4.414;2023-04-09T18:59:19;22.50;94.00
47618;DHT22;33336;36.728;-4.414;2023-04-09T19:04:22;22.50;95.20
47618;DHT22;33336;36.728;-4.414;2023-04-09T19:09:29;22.40;95.60
47618;DHT22;33336;36.728;-4.414;2023-04-09T19:14:33;21.90;97.10
47618;DHT22;33336;36.728;-4.414;2023-04-09T19:19:37;21.50;98.00
47618;DHT22;33336;36.728;-4.414;2023-04-09T19:24:42;21.30;99.10
47618;DHT22;33336;36.728;-4.414;2023-04-09T19:29:47;21.50;98.90
47618;DHT22;33336;36.728;-4.414;2023-04-09T19:34:50;21.30;99.50
47618;DHT22;33336;36.728;-4.414;2023-04-09T19:39:53;21.80;98.30
47618;DHT22;33336;36.728;-4.414;2023-04-09T19:44:58;21.20;99.50
47618;DHT22;33336;36.728;-4.414;2023-04-09T19:50:02;21.20;99.60
47618;DHT22;33336;36.728;-4.414;2023-04-09T19:55:06;20.90;99.90
47618;DHT22;33336;36.728;-4.414;2023-04-09T20:00:11;20.50;99.90
47618;DHT22;33336;36.728;-4.414;2023-04-09T20:05:15;20.00;99.90
47618;DHT22;33336;36.728;-4.414;2023-04-09T20:10:22;19.70;99.90
47618;DHT22;33336;36.728;-4.414;2023-04-09T20:15:26;19.60;99.90
47618;DHT22;33336;36.728;-4.414;2023-04-09T20:20:30;19.60;99.90
47618;DHT22;33336;36.728;-4.414;2023-04-09T20:25:32;19.50;99.90
47618;DHT22;33336;36.728;-4.414;2023-04-09T20:30:38;19.50;99.90
47618;DHT22;33336;36.728;-4.414;2023-04-09T20:35:41;19.60;99.90
47618;DHT22;33336;36.728;-4.414;2023-04-09T20:40:44;20.30;99.90
47618;DHT22;33336;36.728;-4.414;2023-04-09T20:45:48;20.60;99.90
47618;DHT22;33336;36.728;-4.414;2023-04-09T20:50:52;20.80;99.90
47618;DHT22;33336;36.728;-4.414;2023-04-09T20:55:55;21.10;99.90
47618;DHT22;33336;36.728;-4.414;2023-04-09T21:01:03;21.10;99.90
47618;DHT22;33336;36.728;-4.414;2023-04-09T21:06:07;21.10;99.90
47618;DHT22;33336;36.728;-4.414;2023-04-09T21:11:11;21.10;99.90
47618;DHT22;33336;36.728;-4.414;2023-04-09T21:16:16;21.00;99.90
47618;DHT22;33336;36.728;-4.414;2023-04-09T21:21:20;20.90;99.90
47618;DHT22;33336;36.728;-4.414;2023-04-09T21:26:23;20.90;99.90
47618;DHT22;33336;36.728;-4.414;2023-04-09T21:31:27;20.90;99.90
47618;DHT22;33336;36.728;-4.414;2023-04-09T21:36:30;20.80;99.90
47618;DHT22;33336;36.728;-4.414;2023-04-09T21:41:38;20.70;99.90
47618;DHT22;33336;36.728;-4.414;2023-04-09T21:46:42;20.50;99.90
47618;DHT22;33336;36.728;-4.414;2023-04-09T21:51:46;20.60;99.90
47618;DHT22;33336;36.728;-4.414;2023-04-09T21:56:48;20.60;99.90
47618;DHT22;33336;36.728;-4.414;2023-04-09T22:01:53;20.50;99.90
47618;DHT22;33336;36.728;-4.414;2023-04-09T22:06:56;20.50;99.90
47618;DHT22;33336;36.728;-4.414;2023-04-09T22:12:00;20.40;99.90
47618;DHT22;33336;36.728;-4.414;2023-04-09T22:17:05;20.30;99.90
47618;DHT22;33336;36.728;-4.414;2023-04-09T22:22:09;20.20;99.90
47618;DHT22;33336;36.728;-4.414;2023-04-09T22:27:13;19.50;99.90
47618;DHT22;33336;36.728;-4.414;2023-04-09T22:32:18;19.70;99.90
47618;DHT22;33336;36.728;-4.414;2023-04-09T22:37:21;20.00;99.90
47618;DHT22;33336;36.728;-4.414;2023-04-09T22:42:24;19.90;99.90
47618;DHT22;33336;36.728;-4.414;2023-04-09T22:47:28;19.80;99.90
47618;DHT22;33336;36.728;-4.414;2023-04-09T22:52:32;19.80;99.90
47618;DHT22;33336;36.728;-4.414;2023-04-09T22:57:34;19.70;99.90
47618;DHT22;33336;36.728;-4.414;2023-04-09T23:02:40;19.50;99.90
47618;DHT22;33336;36.728;-4.414;2023-04-09T23:07:43;19.60;99.90
47618;DHT22;33336;36.728;-4.414;2023-04-09T23:12:48;19.60;99.90
47618;DHT22;33336;36.728;-4.414;2023-04-09T23:17:52;19.60;99.90
47618;DHT22;33336;36.728;-4.414;2023-04-09T23:22:56;19.30;99.90
47618;DHT22;33336;36.728;-4.414;2023-04-09T23:27:58;19.30;99.90
47618;DHT22;33336;36.728;-4.414;2023-04-09T23:33:03;19.40;99.90
47618;DHT22;33336;36.728;-4.414;2023-04-09T23:38:06;19.40;99.90
47618;DHT22;33336;36.728;-4.414;2023-04-09T23:43:10;19.30;99.90
47618;DHT22;33336;36.728;-4.414;2023-04-09T23:48:14;19.10;99.90
47618;DHT22;33336;36.728;-4.414;2023-04-09T23:53:18;19.20;99.90
47618;DHT22;33336;36.728;-4.414;2023-04-09T23:58:21;19.10;99.90
